< < Back
Terminal Aerodrome Forecast


Current Version              Previous Versions:   1  2  3  4  5  6  7  8  9  

Terminal Aerodrome Forecast

046
FTUS42 KFFC 222300
TAFCSG
TAF
KCSG 222328Z 2300/2324 00000KT P6SM FEW250
     FM231500 32005KT P6SM FEW035
     FM231700 31006KT P6SM SCT045
     FM232100 31008KT P6SM VCSH SCT050=



Latest METAR

776
SAUS70 KWBC 231700
MTRCSG
METAR KCSG 231651Z 31005KT 10SM SCT050 34/20 A2999 RMK AO2 SLP147
T03440200


USA.gov is the U.S. government's official web portal to all federal, state and local government web resources and services.